sensor_id;sensor_type;location;lat;lon;timestamp;pressure;altitude;pressure_sealevel;temperature;humidity
55466;BME280;41329;41.594;23.810;2023-01-09T00:02:02;95706.13;;;2.97;58.94
55466;BME280;41329;41.594;23.810;2023-01-09T00:04:28;95712.72;;;2.96;59.60
55466;BME280;41329;41.594;23.810;2023-01-09T00:06:53;95717.38;;;2.96;60.11
55466;BME280;41329;41.594;23.810;2023-01-09T00:09:20;95702.69;;;2.83;59.59
55466;BME280;41329;41.594;23.810;2023-01-09T00:11:46;95707.84;;;2.85;59.70
55466;BME280;41329;41.594;23.810;2023-01-09T00:14:16;95718.63;;;2.90;59.19
55466;BME280;41329;41.594;23.810;2023-01-09T00:16:41;95732.59;;;2.88;59.26
55466;BME280;41329;41.594;23.810;2023-01-09T00:19:07;95730.00;;;2.83;59.17
55466;BME280;41329;41.594;23.810;2023-01-09T00:21:33;95678.78;;;2.58;59.35
55466;BME280;41329;41.594;23.810;2023-01-09T00:23:58;95678.09;;;2.53;59.64
55466;BME280;41329;41.594;23.810;2023-01-09T00:26:23;95714.50;;;2.70;59.47
55466;BME280;41329;41.594;23.810;2023-01-09T00:28:50;95697.44;;;2.65;59.71
55466;BME280;41329;41.594;23.810;2023-01-09T00:31:19;95708.19;;;2.61;60.09
55466;BME280;41329;41.594;23.810;2023-01-09T00:33:59;95701.59;;;2.62;61.10
55466;BME280;41329;41.594;23.810;2023-01-09T00:36:25;95697.41;;;2.56;61.60
55466;BME280;41329;41.594;23.810;2023-01-09T00:38:51;95707.69;;;2.59;61.03
55466;BME280;41329;41.594;23.810;2023-01-09T00:41:23;95709.28;;;2.60;61.09
55466;BME280;41329;41.594;23.810;2023-01-09T00:43:52;95676.41;;;2.43;61.03
55466;BME280;41329;41.594;23.810;2023-01-09T00:46:23;95695.09;;;2.50;61.00
55466;BME280;41329;41.594;23.810;2023-01-09T00:48:50;95703.84;;;2.60;61.10
55466;BME280;41329;41.594;23.810;2023-01-09T00:51:18;95682.56;;;2.49;60.82
55466;BME280;41329;41.594;23.810;2023-01-09T00:53:44;95695.47;;;2.57;60.99
55466;BME280;41329;41.594;23.810;2023-01-09T00:56:13;95700.16;;;2.56;60.83
55466;BME280;41329;41.594;23.810;2023-01-09T00:58:39;95702.38;;;2.54;61.04
55466;BME280;41329;41.594;23.810;2023-01-09T01:01:05;95703.19;;;2.55;61.02
55466;BME280;41329;41.594;23.810;2023-01-09T01:03:30;95684.63;;;2.43;61.21
55466;BME280;41329;41.594;23.810;2023-01-09T01:05:56;95690.97;;;2.52;61.16
55466;BME280;41329;41.594;23.810;2023-01-09T01:08:40;95698.03;;;2.53;61.16
55466;BME280;41329;41.594;23.810;2023-01-09T01:11:08;95693.69;;;2.52;60.79
55466;BME280;41329;41.594;23.810;2023-01-09T01:13:35;95679.50;;;2.42;60.46
55466;BME280;41329;41.594;23.810;2023-01-09T01:16:03;95687.34;;;2.43;60.76
55466;BME280;41329;41.594;23.810;2023-01-09T01:18:29;95676.22;;;2.31;60.88
55466;BME280;41329;41.594;23.810;2023-01-09T01:20:54;95675.31;;;2.22;61.11
55466;BME280;41329;41.594;23.810;2023-01-09T01:23:20;95677.75;;;2.24;61.71
55466;BME280;41329;41.594;23.810;2023-01-09T01:25:45;95677.88;;;2.19;62.09
55466;BME280;41329;41.594;23.810;2023-01-09T01:28:11;95678.00;;;2.14;62.64
55466;BME280;41329;41.594;23.810;2023-01-09T01:30:41;95665.28;;;2.09;62.79
55466;BME280;41329;41.594;23.810;2023-01-09T01:33:08;95661.47;;;2.10;63.20
55466;BME280;41329;41.594;23.810;2023-01-09T01:35:34;95663.84;;;2.12;63.04
55466;BME280;41329;41.594;23.810;2023-01-09T01:37:59;95655.88;;;2.15;62.52
55466;BME280;41329;41.594;23.810;2023-01-09T01:40:25;95658.28;;;2.17;62.66
55466;BME280;41329;41.594;23.810;2023-01-09T01:42:52;95661.31;;;2.15;62.86
55466;BME280;41329;41.594;23.810;2023-01-09T01:45:21;95666.34;;;2.22;62.83
55466;BME280;41329;41.594;23.810;2023-01-09T01:47:48;95660.25;;;2.25;63.26
55466;BME280;41329;41.594;23.810;2023-01-09T01:50:40;95644.31;;;2.18;63.30
55466;BME280;41329;41.594;23.810;2023-01-09T01:53:16;95648.91;;;2.31;63.16
55466;BME280;41329;41.594;23.810;2023-01-09T01:58:21;95627.81;;;2.23;63.10
55466;BME280;41329;41.594;23.810;2023-01-09T02:00:47;95644.53;;;2.30;63.13
55466;BME280;41329;41.594;23.810;2023-01-09T02:03:17;95639.66;;;2.19;63.62
55466;BME280;41329;41.594;23.810;2023-01-09T02:05:44;95642.78;;;2.26;63.57
55466;BME280;41329;41.594;23.810;2023-01-09T02:08:09;95628.59;;;2.24;64.01
55466;BME280;41329;41.594;23.810;2023-01-09T02:10:36;95642.19;;;2.37;63.81
55466;BME280;41329;41.594;23.810;2023-01-09T02:13:03;95646.53;;;2.38;63.53
55466;BME280;41329;41.594;23.810;2023-01-09T02:34:36;95625.06;;;2.54;64.65
55466;BME280;41329;41.594;23.810;2023-01-09T02:42:44;95611.63;;;2.66;65.06
55466;BME280;41329;41.594;23.810;2023-01-09T02:45:11;95576.88;;;2.49;64.91
55466;BME280;41329;41.594;23.810;2023-01-09T02:47:42;95600.25;;;2.72;64.76
55466;BME280;41329;41.594;23.810;2023-01-09T02:50:13;95600.91;;;2.78;64.77
55466;BME280;41329;41.594;23.810;2023-01-09T02:52:51;95581.44;;;2.71;64.99
55466;BME280;41329;41.594;23.810;2023-01-09T02:59:01;95585.50;;;2.82;64.99
55466;BME280;41329;41.594;23.810;2023-01-09T03:01:51;95600.78;;;2.83;64.81
55466;BME280;41329;41.594;23.810;2023-01-09T03:09:37;95587.59;;;2.46;64.13
55466;BME280;41329;41.594;23.810;2023-01-09T03:12:09;95590.47;;;2.41;64.14
55466;BME280;41329;41.594;23.810;2023-01-09T03:14:39;95597.75;;;2.45;64.68
55466;BME280;41329;41.594;23.810;2023-01-09T03:17:10;95605.97;;;2.54;65.01
55466;BME280;41329;41.594;23.810;2023-01-09T03:19:37;95591.16;;;2.46;64.94
55466;BME280;41329;41.594;23.810;2023-01-09T03:22:03;95596.25;;;2.39;65.40
55466;BME280;41329;41.594;23.810;2023-01-09T03:24:28;95604.31;;;2.44;65.37
55466;BME280;41329;41.594;23.810;2023-01-09T03:26:54;95577.72;;;2.28;65.54
55466;BME280;41329;41.594;23.810;2023-01-09T03:29:20;95602.22;;;2.41;65.43
55466;BME280;41329;41.594;23.810;2023-01-09T03:31:46;95581.53;;;2.18;65.55
55466;BME280;41329;41.594;23.810;2023-01-09T03:34:11;95602.31;;;2.28;65.42
55466;BME280;41329;41.594;23.810;2023-01-09T03:36:37;95595.28;;;2.05;66.19
55466;BME280;41329;41.594;23.810;2023-01-09T03:39:02;95605.91;;;2.15;66.04
55466;BME280;41329;41.594;23.810;2023-01-09T03:41:27;95604.13;;;2.10;66.23
55466;BME280;41329;41.594;23.810;2023-01-09T03:43:53;95600.75;;;2.13;66.37
55466;BME280;41329;41.594;23.810;2023-01-09T03:46:18;95599.84;;;2.18;66.48
55466;BME280;41329;41.594;23.810;2023-01-09T03:48:44;95600.75;;;2.13;66.52
55466;BME280;41329;41.594;23.810;2023-01-09T03:51:09;95600.97;;;2.17;66.73
55466;BME280;41329;41.594;23.810;2023-01-09T03:53:35;95575.22;;;2.09;66.66
55466;BME280;41329;41.594;23.810;2023-01-09T03:56:00;95604.72;;;2.29;67.22
55466;BME280;41329;41.594;23.810;2023-01-09T03:58:26;95593.81;;;2.29;67.50
55466;BME280;41329;41.594;23.810;2023-01-09T04:01:00;95592.53;;;2.35;67.64
55466;BME280;41329;41.594;23.810;2023-01-09T04:03:26;95599.97;;;2.43;67.58
55466;BME280;41329;41.594;23.810;2023-01-09T04:05:52;95600.16;;;2.47;67.39
55466;BME280;41329;41.594;23.810;2023-01-09T04:08:17;95607.09;;;2.53;67.28
55466;BME280;41329;41.594;23.810;2023-01-09T04:10:47;95599.72;;;2.53;67.24
55466;BME280;41329;41.594;23.810;2023-01-09T04:13:13;95599.88;;;2.57;67.22
55466;BME280;41329;41.594;23.810;2023-01-09T04:15:39;95596.22;;;2.61;67.26
55466;BME280;41329;41.594;23.810;2023-01-09T04:18:04;95600.41;;;2.67;67.74
55466;BME280;41329;41.594;23.810;2023-01-09T04:20:30;95601.69;;;2.70;67.67
55466;BME280;41329;41.594;23.810;2023-01-09T04:22:56;95586.25;;;2.65;67.45
55466;BME280;41329;41.594;23.810;2023-01-09T04:25:23;95605.91;;;2.76;67.17
55466;BME280;41329;41.594;23.810;2023-01-09T04:27:49;95603.50;;;2.74;66.69
55466;BME280;41329;41.594;23.810;2023-01-09T04:30:14;95605.38;;;2.65;66.87
55466;BME280;41329;41.594;23.810;2023-01-09T04:32:39;95610.03;;;2.65;67.03
55466;BME280;41329;41.594;23.810;2023-01-09T04:35:05;95612.75;;;2.65;66.57
55466;BME280;41329;41.594;23.810;2023-01-09T04:37:31;95603.59;;;2.61;66.55
55466;BME280;41329;41.594;23.810;2023-01-09T04:39:56;95602.25;;;2.50;66.55
55466;BME280;41329;41.594;23.810;2023-01-09T04:42:22;95597.44;;;2.47;66.64
55466;BME280;41329;41.594;23.810;2023-01-09T04:44:48;95601.22;;;2.37;66.63
55466;BME280;41329;41.594;23.810;2023-01-09T04:47:19;95605.22;;;2.31;66.92
55466;BME280;41329;41.594;23.810;2023-01-09T04:49:44;95607.59;;;2.24;66.97
55466;BME280;41329;41.594;23.810;2023-01-09T04:52:10;95605.03;;;2.28;67.42
55466;BME280;41329;41.594;23.810;2023-01-09T04:54:35;95596.00;;;2.19;67.86
55466;BME280;41329;41.594;23.810;2023-01-09T04:57:03;95606.84;;;2.32;67.73
55466;BME280;41329;41.594;23.810;2023-01-09T04:59:29;95612.63;;;2.39;67.94
55466;BME280;41329;41.594;23.810;2023-01-09T05:01:54;95596.59;;;2.38;68.03
55466;BME280;41329;41.594;23.810;2023-01-09T05:04:23;95605.78;;;2.50;68.21
55466;BME280;41329;41.594;23.810;2023-01-09T05:06:48;95599.31;;;2.38;67.95
55466;BME280;41329;41.594;23.810;2023-01-09T05:09:14;95606.69;;;2.37;68.11
55466;BME280;41329;41.594;23.810;2023-01-09T05:11:39;95619.75;;;2.49;68.03
55466;BME280;41329;41.594;23.810;2023-01-09T05:14:05;95621.25;;;2.55;68.15
55466;BME280;41329;41.594;23.810;2023-01-09T05:16:30;95614.03;;;2.59;67.82
55466;BME280;41329;41.594;23.810;2023-01-09T05:18:56;95615.94;;;2.58;67.86
55466;BME280;41329;41.594;23.810;2023-01-09T05:21:25;95615.03;;;2.63;67.49
55466;BME280;41329;41.594;23.810;2023-01-09T05:23:51;95613.59;;;2.65;67.55
55466;BME280;41329;41.594;23.810;2023-01-09T05:26:17;95620.03;;;2.69;67.43
55466;BME280;41329;41.594;23.810;2023-01-09T05:28:43;95610.88;;;2.74;67.89
55466;BME280;41329;41.594;23.810;2023-01-09T05:31:08;95620.03;;;2.78;68.04
55466;BME280;41329;41.594;23.810;2023-01-09T05:33:34;95614.75;;;2.81;67.95
55466;BME280;41329;41.594;23.810;2023-01-09T05:35:59;95610.91;;;2.82;67.94
55466;BME280;41329;41.594;23.810;2023-01-09T05:38:24;95616.38;;;2.82;67.96
55466;BME280;41329;41.594;23.810;2023-01-09T05:40:50;95598.03;;;2.74;67.93
55466;BME280;41329;41.594;23.810;2023-01-09T05:43:15;95611.06;;;2.86;67.91
55466;BME280;41329;41.594;23.810;2023-01-09T05:45:42;95588.75;;;2.84;68.19
55466;BME280;41329;41.594;23.810;2023-01-09T05:48:07;95611.28;;;2.98;68.33
55466;BME280;41329;41.594;23.810;2023-01-09T05:50:32;95603.25;;;3.01;68.23
55466;BME280;41329;41.594;23.810;2023-01-09T05:52:58;95597.47;;;3.03;68.19
55466;BME280;41329;41.594;23.810;2023-01-09T05:55:23;95599.06;;;3.04;68.21
55466;BME280;41329;41.594;23.810;2023-01-09T05:57:49;95578.19;;;2.99;68.32
55466;BME280;41329;41.594;23.810;2023-01-09T06:00:15;95597.81;;;3.10;68.32
55466;BME280;41329;41.594;23.810;2023-01-09T06:02:40;95601.22;;;3.15;67.99
55466;BME280;41329;41.594;23.810;2023-01-09T06:05:06;95577.34;;;2.90;68.11
55466;BME280;41329;41.594;23.810;2023-01-09T06:07:32;95599.38;;;3.02;68.07
55466;BME280;41329;41.594;23.810;2023-01-09T06:10:00;95572.50;;;2.87;67.95
55466;BME280;41329;41.594;23.810;2023-01-09T06:12:26;95566.56;;;2.94;68.17
55466;BME280;41329;41.594;23.810;2023-01-09T06:14:51;95543.53;;;2.78;68.33
55466;BME280;41329;41.594;23.810;2023-01-09T06:17:17;95592.16;;;3.06;68.68
55466;BME280;41329;41.594;23.810;2023-01-09T06:19:42;95591.03;;;2.99;68.48
55466;BME280;41329;41.594;23.810;2023-01-09T06:22:07;95575.75;;;2.98;68.38
55466;BME280;41329;41.594;23.810;2023-01-09T06:24:33;95590.25;;;2.98;68.28
55466;BME280;41329;41.594;23.810;2023-01-09T06:26:58;95588.56;;;2.80;68.53
55466;BME280;41329;41.594;23.810;2023-01-09T06:29:24;95572.72;;;2.60;68.89
55466;BME280;41329;41.594;23.810;2023-01-09T06:31:49;95587.88;;;2.66;68.84
55466;BME280;41329;41.594;23.810;2023-01-09T06:34:15;95582.97;;;2.46;69.31
55466;BME280;41329;41.594;23.810;2023-01-09T06:36:40;95593.13;;;2.24;70.35
55466;BME280;41329;41.594;23.810;2023-01-09T06:39:05;95583.28;;;1.92;71.08
55466;BME280;41329;41.594;23.810;2023-01-09T06:41:31;95582.50;;;1.92;71.49
55466;BME280;41329;41.594;23.810;2023-01-09T06:43:57;95544.78;;;1.94;71.29
55466;BME280;41329;41.594;23.810;2023-01-09T06:46:22;95573.03;;;2.20;71.61
55466;BME280;41329;41.594;23.810;2023-01-09T06:48:48;95561.31;;;2.19;71.59
55466;BME280;41329;41.594;23.810;2023-01-09T06:51:13;95560.19;;;2.20;71.64
55466;BME280;41329;41.594;23.810;2023-01-09T06:53:38;95580.22;;;2.38;72.07
55466;BME280;41329;41.594;23.810;2023-01-09T06:56:04;95567.19;;;2.35;71.78
55466;BME280;41329;41.594;23.810;2023-01-09T06:58:30;95571.38;;;2.41;71.38
55466;BME280;41329;41.594;23.810;2023-01-09T07:00:57;95573.47;;;2.44;70.96
55466;BME280;41329;41.594;23.810;2023-01-09T07:03:23;95590.91;;;2.65;70.79
55466;BME280;41329;41.594;23.810;2023-01-09T07:05:48;95570.50;;;2.62;70.55
55466;BME280;41329;41.594;23.810;2023-01-09T07:08:14;95575.81;;;2.67;70.56
55466;BME280;41329;41.594;23.810;2023-01-09T07:10:41;95561.31;;;2.58;70.39
55466;BME280;41329;41.594;23.810;2023-01-09T07:13:07;95591.59;;;2.79;70.51
55466;BME280;41329;41.594;23.810;2023-01-09T07:15:33;95595.50;;;2.86;70.28
55466;BME280;41329;41.594;23.810;2023-01-09T07:17:58;95588.44;;;2.94;70.05
55466;BME280;41329;41.594;23.810;2023-01-09T07:20:24;95596.81;;;2.97;70.19
55466;BME280;41329;41.594;23.810;2023-01-09T07:22:49;95582.66;;;3.04;70.20
55466;BME280;41329;41.594;23.810;2023-01-09T07:25:15;95580.28;;;3.11;70.16
55466;BME280;41329;41.594;23.810;2023-01-09T07:27:40;95585.44;;;3.21;70.00
55466;BME280;41329;41.594;23.810;2023-01-09T07:30:06;95580.31;;;3.28;69.83
55466;BME280;41329;41.594;23.810;2023-01-09T07:32:32;95570.28;;;3.06;70.18
55466;BME280;41329;41.594;23.810;2023-01-09T07:34:58;95568.22;;;3.12;70.62
55466;BME280;41329;41.594;23.810;2023-01-09T07:37:24;95571.63;;;3.26;70.65
55466;BME280;41329;41.594;23.810;2023-01-09T07:39:49;95555.03;;;3.22;70.66
55466;BME280;41329;41.594;23.810;2023-01-09T07:42:15;95575.78;;;3.23;70.96
55466;BME280;41329;41.594;23.810;2023-01-09T07:44:41;95570.50;;;3.27;70.96
55466;BME280;41329;41.594;23.810;2023-01-09T07:47:06;95567.59;;;3.32;70.71
55466;BME280;41329;41.594;23.810;2023-01-09T07:49:32;95577.09;;;3.34;70.33
55466;BME280;41329;41.594;23.810;2023-01-09T07:51:57;95567.28;;;3.25;69.79
55466;BME280;41329;41.594;23.810;2023-01-09T07:54:23;95556.81;;;3.18;70.10
55466;BME280;41329;41.594;23.810;2023-01-09T07:56:48;95532.19;;;3.18;70.04
55466;BME280;41329;41.594;23.810;2023-01-09T07:59:14;95564.41;;;3.47;69.86
55466;BME280;41329;41.594;23.810;2023-01-09T08:01:39;95542.03;;;3.28;69.92
55466;BME280;41329;41.594;23.810;2023-01-09T08:04:05;95555.06;;;3.31;69.55
55466;BME280;41329;41.594;23.810;2023-01-09T08:06:31;95566.00;;;3.31;69.88
55466;BME280;41329;41.594;23.810;2023-01-09T08:08:57;95561.97;;;3.37;69.98
55466;BME280;41329;41.594;23.810;2023-01-09T08:11:23;95572.13;;;3.45;70.21
55466;BME280;41329;41.594;23.810;2023-01-09T08:13:48;95551.03;;;3.37;70.06
55466;BME280;41329;41.594;23.810;2023-01-09T08:16:14;95562.28;;;3.35;70.10
55466;BME280;41329;41.594;23.810;2023-01-09T08:18:40;95561.81;;;3.33;69.74
55466;BME280;41329;41.594;23.810;2023-01-09T08:21:05;95562.47;;;3.47;70.15
55466;BME280;41329;41.594;23.810;2023-01-09T08:23:31;95572.59;;;3.55;69.91
55466;BME280;41329;41.594;23.810;2023-01-09T08:25:56;95556.03;;;3.35;70.15
55466;BME280;41329;41.594;23.810;2023-01-09T08:28:22;95579.03;;;3.59;69.99
55466;BME280;41329;41.594;23.810;2023-01-09T08:30:47;95580.16;;;3.67;69.99
55466;BME280;41329;41.594;23.810;2023-01-09T08:33:13;95579.84;;;3.77;70.20
55466;BME280;41329;41.594;23.810;2023-01-09T08:35:38;95561.31;;;3.65;69.74
55466;BME280;41329;41.594;23.810;2023-01-09T08:38:04;95567.44;;;3.71;69.88
55466;BME280;41329;41.594;23.810;2023-01-09T08:40:29;95571.16;;;3.75;69.86
55466;BME280;41329;41.594;23.810;2023-01-09T08:42:55;95588.38;;;3.92;69.50
55466;BME280;41329;41.594;23.810;2023-01-09T08:45:39;95566.16;;;3.94;69.66
55466;BME280;41329;41.594;23.810;2023-01-09T08:48:23;95593.66;;;4.14;69.83
55466;BME280;41329;41.594;23.810;2023-01-09T08:50:49;95593.31;;;4.07;69.45
55466;BME280;41329;41.594;23.810;2023-01-09T08:53:15;95568.53;;;4.12;70.18
55466;BME280;41329;41.594;23.810;2023-01-09T08:55:41;95579.41;;;4.38;70.57
55466;BME280;41329;41.594;23.810;2023-01-09T08:58:06;95577.63;;;4.50;70.64
55466;BME280;41329;41.594;23.810;2023-01-09T09:00:32;95565.47;;;4.60;69.07
55466;BME280;41329;41.594;23.810;2023-01-09T09:02:58;95555.44;;;4.72;69.36
55466;BME280;41329;41.594;23.810;2023-01-09T09:05:26;95557.28;;;4.89;70.21
55466;BME280;41329;41.594;23.810;2023-01-09T09:07:53;95537.25;;;4.97;70.31
55466;BME280;41329;41.594;23.810;2023-01-09T09:10:21;95547.59;;;5.20;69.86
55466;BME280;41329;41.594;23.810;2023-01-09T09:12:47;95550.09;;;5.34;68.70
55466;BME280;41329;41.594;23.810;2023-01-09T09:15:14;95541.94;;;5.46;67.70
55466;BME280;41329;41.594;23.810;2023-01-09T09:18:02;95534.63;;;5.50;66.71
55466;BME280;41329;41.594;23.810;2023-01-09T09:20:30;95510.19;;;5.36;66.42
55466;BME280;41329;41.594;23.810;2023-01-09T09:22:56;95500.50;;;5.39;66.51
55466;BME280;41329;41.594;23.810;2023-01-09T09:25:22;95517.31;;;5.58;66.11
55466;BME280;41329;41.594;23.810;2023-01-09T09:27:48;95522.25;;;5.64;66.54
55466;BME280;41329;41.594;23.810;2023-01-09T09:30:16;95522.75;;;5.78;66.60
55466;BME280;41329;41.594;23.810;2023-01-09T09:32:42;95522.13;;;5.81;66.34
55466;BME280;41329;41.594;23.810;2023-01-09T09:35:08;95519.69;;;5.80;65.34
55466;BME280;41329;41.594;23.810;2023-01-09T09:37:35;95517.91;;;5.84;65.47
55466;BME280;41329;41.594;23.810;2023-01-09T09:40:00;95499.50;;;5.84;65.36
55466;BME280;41329;41.594;23.810;2023-01-09T09:48:23;95501.53;;;5.87;63.57
55466;BME280;41329;41.594;23.810;2023-01-09T09:56:25;95461.09;;;5.96;65.81
55466;BME280;41329;41.594;23.810;2023-01-09T09:59:01;95491.94;;;6.26;65.61
55466;BME280;41329;41.594;23.810;2023-01-09T10:02:28;95495.53;;;6.50;65.62
55466;BME280;41329;41.594;23.810;2023-01-09T10:04:50;95483.63;;;6.71;64.90
55466;BME280;41329;41.594;23.810;2023-01-09T10:07:23;95481.56;;;6.80;64.19
55466;BME280;41329;41.594;23.810;2023-01-09T10:09:56;95450.06;;;6.89;65.02
55466;BME280;41329;41.594;23.810;2023-01-09T10:15:08;95478.44;;;7.17;62.21
55466;BME280;41329;41.594;23.810;2023-01-09T10:18:17;95480.03;;;7.30;62.46
55466;BME280;41329;41.594;23.810;2023-01-09T10:21:05;95475.19;;;7.39;62.14
55466;BME280;41329;41.594;23.810;2023-01-09T10:37:45;95386.72;;;7.25;61.88
55466;BME280;41329;41.594;23.810;2023-01-09T10:40:21;95423.50;;;7.60;63.36
55466;BME280;41329;41.594;23.810;2023-01-09T10:43:08;95371.09;;;7.57;62.43
55466;BME280;41329;41.594;23.810;2023-01-09T10:45:46;95430.03;;;8.11;61.34
55466;BME280;41329;41.594;23.810;2023-01-09T10:48:25;95427.44;;;8.18;60.04
55466;BME280;41329;41.594;23.810;2023-01-09T10:50:54;95398.28;;;8.01;58.97
55466;BME280;41329;41.594;23.810;2023-01-09T10:53:22;95384.75;;;7.96;59.34
55466;BME280;41329;41.594;23.810;2023-01-09T10:55:54;95405.16;;;8.23;59.70
55466;BME280;41329;41.594;23.810;2023-01-09T10:58:21;95360.47;;;8.02;59.09
55466;BME280;41329;41.594;23.810;2023-01-09T11:00:49;95394.66;;;8.28;58.92
55466;BME280;41329;41.594;23.810;2023-01-09T11:03:17;95350.34;;;7.90;59.09
55466;BME280;41329;41.594;23.810;2023-01-09T11:05:49;95395.91;;;8.31;59.73
55466;BME280;41329;41.594;23.810;2023-01-09T11:08:39;95384.34;;;8.25;59.74
55466;BME280;41329;41.594;23.810;2023-01-09T11:11:08;95382.91;;;8.47;59.51
55466;BME280;41329;41.594;23.810;2023-01-09T11:13:35;95391.16;;;8.62;60.63
55466;BME280;41329;41.594;23.810;2023-01-09T11:18:32;95355.13;;;8.71;58.39
55466;BME280;41329;41.594;23.810;2023-01-09T11:21:29;95375.06;;;8.99;58.76
55466;BME280;41329;41.594;23.810;2023-01-09T11:24:22;95343.53;;;9.15;58.56
55466;BME280;41329;41.594;23.810;2023-01-09T11:26:52;95355.44;;;9.57;57.49
55466;BME280;41329;41.594;23.810;2023-01-09T11:29:20;95335.84;;;9.66;57.78
55466;BME280;41329;41.594;23.810;2023-01-09T11:31:56;95341.78;;;9.87;57.29
55466;BME280;41329;41.594;23.810;2023-01-09T11:34:27;95323.06;;;9.99;54.35
55466;BME280;41329;41.594;23.810;2023-01-09T11:37:09;95319.81;;;10.13;54.92
55466;BME280;41329;41.594;23.810;2023-01-09T11:39:37;95306.84;;;10.17;54.74
55466;BME280;41329;41.594;23.810;2023-01-09T11:42:15;95316.06;;;10.50;55.41
55466;BME280;41329;41.594;23.810;2023-01-09T11:44:44;95314.59;;;10.82;56.07
55466;BME280;41329;41.594;23.810;2023-01-09T11:47:24;95301.88;;;11.07;53.94
55466;BME280;41329;41.594;23.810;2023-01-09T11:50:21;95297.59;;;11.13;51.02
55466;BME280;41329;41.594;23.810;2023-01-09T11:53:14;95280.16;;;10.80;51.23
55466;BME280;41329;41.594;23.810;2023-01-09T11:55:41;95292.44;;;10.82;51.66
55466;BME280;41329;41.594;23.810;2023-01-09T11:58:18;95282.66;;;10.92;52.65
55466;BME280;41329;41.594;23.810;2023-01-09T12:06:39;95264.47;;;10.91;51.39
55466;BME280;41329;41.594;23.810;2023-01-09T12:09:06;95260.50;;;10.88;51.92
55466;BME280;41329;41.594;23.810;2023-01-09T12:11:40;95260.41;;;11.14;52.44
55466;BME280;41329;41.594;23.810;2023-01-09T12:33:29;95237.66;;;11.28;50.44
55466;BME280;41329;41.594;23.810;2023-01-09T12:49:38;95236.47;;;11.62;50.34
55466;BME280;41329;41.594;23.810;2023-01-09T12:52:23;95213.91;;;11.60;49.53
55466;BME280;41329;41.594;23.810;2023-01-09T12:55:01;95219.16;;;11.72;49.82
55466;BME280;41329;41.594;23.810;2023-01-09T12:57:39;95225.59;;;11.83;50.18
55466;BME280;41329;41.594;23.810;2023-01-09T13:02:45;95218.19;;;11.97;49.70
55466;BME280;41329;41.594;23.810;2023-01-09T13:05:19;95212.81;;;12.18;49.57
55466;BME280;41329;41.594;23.810;2023-01-09T13:08:09;95215.38;;;12.44;49.81
55466;BME280;41329;41.594;23.810;2023-01-09T13:10:56;95222.13;;;12.43;47.47
55466;BME280;41329;41.594;23.810;2023-01-09T13:13:49;95224.13;;;12.47;48.50
55466;BME280;41329;41.594;23.810;2023-01-09T13:16:21;95220.75;;;12.78;48.24
55466;BME280;41329;41.594;23.810;2023-01-09T13:18:57;95223.84;;;13.34;48.74
55466;BME280;41329;41.594;23.810;2023-01-09T13:21:25;95217.19;;;13.91;47.07
55466;BME280;41329;41.594;23.810;2023-01-09T13:23:56;95213.28;;;14.27;45.83
55466;BME280;41329;41.594;23.810;2023-01-09T13:26:35;95220.41;;;14.70;44.70
55466;BME280;41329;41.594;23.810;2023-01-09T13:29:15;95220.81;;;14.51;42.55
55466;BME280;41329;41.594;23.810;2023-01-09T13:34:33;95204.53;;;14.25;42.09
55466;BME280;41329;41.594;23.810;2023-01-09T13:37:00;95208.09;;;14.04;42.46
55466;BME280;41329;41.594;23.810;2023-01-09T13:39:28;95214.41;;;13.77;43.18
55466;BME280;41329;41.594;23.810;2023-01-09T13:42:00;95201.28;;;13.63;43.69
55466;BME280;41329;41.594;23.810;2023-01-09T13:44:47;95193.31;;;13.62;44.84
55466;BME280;41329;41.594;23.810;2023-01-09T13:47:22;95205.66;;;13.68;44.61
55466;BME280;41329;41.594;23.810;2023-01-09T13:59:47;95185.81;;;13.90;44.82
55466;BME280;41329;41.594;23.810;2023-01-09T14:05:01;95184.25;;;14.21;45.13
55466;BME280;41329;41.594;23.810;2023-01-09T14:07:29;95184.28;;;14.35;43.70
55466;BME280;41329;41.594;23.810;2023-01-09T14:10:00;95180.25;;;14.32;42.97
55466;BME280;41329;41.594;23.810;2023-01-09T14:12:28;95198.53;;;14.16;42.91
55466;BME280;41329;41.594;23.810;2023-01-09T14:14:57;95202.13;;;13.85;43.00
55466;BME280;41329;41.594;23.810;2023-01-09T14:17:34;95204.47;;;13.79;43.82
55466;BME280;41329;41.594;23.810;2023-01-09T14:20:04;95195.28;;;13.58;43.81
55466;BME280;41329;41.594;23.810;2023-01-09T14:22:33;95189.34;;;13.56;44.67
55466;BME280;41329;41.594;23.810;2023-01-09T14:25:15;95200.06;;;13.64;44.31
55466;BME280;41329;41.594;23.810;2023-01-09T14:35:33;95161.41;;;13.10;43.88
55466;BME280;41329;41.594;23.810;2023-01-09T14:38:29;95166.47;;;12.87;44.54
55466;BME280;41329;41.594;23.810;2023-01-09T14:46:37;95148.22;;;12.14;46.11
55466;BME280;41329;41.594;23.810;2023-01-09T14:49:11;95127.81;;;11.86;46.40
55466;BME280;41329;41.594;23.810;2023-01-09T14:51:42;95155.53;;;11.89;46.52
55466;BME280;41329;41.594;23.810;2023-01-09T14:54:29;95155.84;;;11.77;47.37
55466;BME280;41329;41.594;23.810;2023-01-09T14:56:55;95152.94;;;11.60;47.53
55466;BME280;41329;41.594;23.810;2023-01-09T14:59:21;95157.91;;;11.47;47.91
55466;BME280;41329;41.594;23.810;2023-01-09T15:01:48;95141.56;;;11.32;48.00
55466;BME280;41329;41.594;23.810;2023-01-09T15:04:35;95140.41;;;11.36;48.16
55466;BME280;41329;41.594;23.810;2023-01-09T15:07:04;95130.34;;;11.18;48.05
55466;BME280;41329;41.594;23.810;2023-01-09T15:09:44;95153.69;;;11.20;47.64
55466;BME280;41329;41.594;23.810;2023-01-09T15:12:14;95156.75;;;11.12;48.11
55466;BME280;41329;41.594;23.810;2023-01-09T15:14:42;95151.47;;;11.00;48.13
55466;BME280;41329;41.594;23.810;2023-01-09T15:17:22;95145.44;;;10.91;48.25
55466;BME280;41329;41.594;23.810;2023-01-09T15:19:49;95145.38;;;10.84;48.23
55466;BME280;41329;41.594;23.810;2023-01-09T15:22:32;95150.41;;;10.75;48.27
55466;BME280;41329;41.594;23.810;2023-01-09T15:25:00;95147.47;;;10.61;49.01
55466;BME280;41329;41.594;23.810;2023-01-09T15:27:46;95134.56;;;10.42;48.76